createdAt,value
2019-02-20T00:00:01.207Z,0.00
2019-02-20T00:01:01.201Z,0.00
2019-02-20T00:02:01.191Z,0.00
2019-02-20T00:03:01.202Z,0.00
2019-02-20T00:04:01.164Z,0.00
2019-02-20T00:05:01.147Z,0.00
2019-02-20T00:06:01.140Z,0.00
2019-02-20T00:07:01.137Z,0.00
2019-02-20T00:08:01.151Z,0.00
2019-02-20T00:09:01.108Z,0.00
2019-02-20T00:10:01.101Z,0.00
2019-02-20T00:11:01.095Z,0.00
2019-02-20T00:12:01.079Z,0.00
2019-02-20T00:13:01.088Z,0.00
2019-02-20T00:14:01.078Z,0.00
2019-02-20T00:15:01.053Z,0.00
2019-02-20T00:16:01.045Z,0.00
2019-02-20T00:17:01.022Z,0.00
2019-02-20T00:18:01.011Z,0.00
2019-02-20T00:19:01.030Z,0.00
2019-02-20T00:20:00.987Z,0.00
2019-02-20T00:21:00.978Z,0.00
2019-02-20T00:22:00.968Z,0.00
2019-02-20T00:23:00.968Z,0.00
2019-02-20T00:24:00.971Z,0.00
2019-02-20T00:25:00.939Z,0.00
2019-02-20T00:26:00.922Z,0.00
2019-02-20T00:27:00.918Z,0.00
2019-02-20T00:28:00.907Z,0.00
2019-02-20T00:29:00.919Z,0.00
2019-02-20T00:30:00.891Z,0.00
2019-02-20T00:31:00.890Z,0.00
2019-02-20T00:32:00.868Z,0.00
2019-02-20T00:33:00.857Z,0.00
2019-02-20T00:34:00.866Z,0.00
2019-02-20T00:35:00.828Z,0.00
2019-02-20T00:36:00.831Z,0.00
2019-02-20T00:37:00.806Z,0.00
2019-02-20T00:38:00.805Z,0.00
2019-02-20T00:39:00.811Z,0.00
2019-02-20T00:40:00.820Z,0.00
2019-02-20T00:41:00.776Z,0.00
2019-02-20T00:42:00.754Z,0.00
2019-02-20T00:43:00.748Z,0.00
2019-02-20T00:44:00.759Z,0.00
2019-02-20T00:45:00.730Z,0.00
2019-02-20T00:46:00.713Z,0.00
2019-02-20T00:47:00.698Z,0.00
2019-02-20T00:48:00.691Z,0.00
2019-02-20T00:49:00.709Z,0.00
2019-02-20T00:50:00.749Z,0.00
2019-02-20T00:51:00.666Z,0.00
2019-02-20T00:52:00.652Z,0.00
2019-02-20T00:53:00.637Z,0.00
2019-02-20T00:54:00.660Z,0.00
2019-02-20T00:55:00.620Z,0.00
2019-02-20T00:56:00.606Z,0.00
2019-02-20T00:57:00.593Z,0.00
2019-02-20T00:58:00.582Z,0.00
2019-02-20T00:59:00.598Z,0.00
2019-02-20T01:00:00.564Z,0.00
2019-02-20T01:01:00.554Z,0.00
2019-02-20T01:02:00.538Z,0.00
2019-02-20T01:03:00.526Z,0.00
2019-02-20T01:04:00.552Z,0.00
2019-02-20T01:05:00.514Z,0.00
2019-02-20T01:06:00.499Z,0.00
2019-02-20T01:07:00.492Z,0.00
2019-02-20T01:08:00.478Z,0.00
2019-02-20T01:09:00.518Z,0.00
2019-02-20T01:10:00.557Z,0.00
2019-02-20T01:11:00.446Z,0.00
2019-02-20T01:12:00.434Z,0.00
2019-02-20T01:13:00.425Z,0.00
2019-02-20T01:14:00.412Z,0.00
2019-02-20T01:15:00.432Z,0.00
2019-02-20T01:16:00.390Z,0.00
2019-02-20T01:17:00.379Z,0.00
2019-02-20T01:18:00.372Z,0.00
2019-02-20T01:19:00.367Z,0.00
2019-02-20T01:20:00.463Z,0.00
2019-02-20T01:21:00.338Z,0.00
2019-02-20T01:22:00.327Z,0.00
2019-02-20T01:23:00.483Z,0.00
2019-02-20T01:24:00.303Z,0.00
2019-02-20T01:25:00.450Z,0.00
2019-02-20T01:26:00.293Z,0.00
2019-02-20T01:27:00.277Z,0.00
2019-02-20T01:28:00.262Z,0.00
2019-02-20T01:29:00.271Z,0.00
2019-02-20T01:30:00.353Z,0.00
2019-02-20T01:31:00.234Z,0.00
2019-02-20T01:32:00.233Z,0.00
2019-02-20T01:33:00.208Z,0.00
2019-02-20T01:34:00.199Z,0.00
2019-02-20T01:35:00.309Z,0.00
2019-02-20T01:36:00.179Z,0.00
2019-02-20T01:37:00.166Z,0.00
2019-02-20T01:38:00.172Z,0.00
2019-02-20T01:39:00.146Z,0.00
2019-02-20T01:40:00.264Z,0.00
2019-02-20T01:41:00.125Z,0.00
2019-02-20T01:42:00.116Z,0.00
2019-02-20T01:43:00.102Z,0.00
2019-02-20T01:44:00.094Z,0.00
2019-02-20T01:45:00.285Z,0.00
2019-02-20T01:46:00.070Z,0.00
2019-02-20T01:47:00.057Z,0.00
2019-02-20T01:48:00.049Z,0.00
2019-02-20T01:49:00.042Z,0.00
2019-02-20T01:50:00.302Z,0.00
2019-02-20T01:51:00.018Z,0.00
2019-02-20T01:52:00.001Z,0.00
2019-02-20T01:53:09.802Z,0.00
2019-02-20T01:54:00.986Z,0.00
2019-02-20T01:54:59.976Z,0.00
2019-02-20T01:55:59.993Z,0.00
2019-02-20T01:56:59.951Z,0.00
2019-02-20T01:57:59.947Z,0.00
2019-02-20T01:58:59.930Z,0.00
2019-02-20T01:59:59.919Z,0.00
2019-02-20T02:00:59.932Z,0.00
2019-02-20T02:01:59.899Z,0.00
2019-02-20T02:02:59.888Z,0.00
2019-02-20T02:03:59.875Z,0.00
2019-02-20T02:04:59.865Z,0.00
2019-02-20T02:05:59.878Z,0.00
2019-02-20T02:06:59.841Z,0.00
2019-02-20T02:07:59.831Z,0.00
2019-02-20T02:08:59.839Z,0.00
2019-02-20T02:09:59.818Z,0.00
2019-02-20T02:10:59.855Z,0.00
2019-02-20T02:11:59.789Z,0.00
2019-02-20T02:12:59.788Z,0.00
2019-02-20T02:13:59.769Z,0.00
2019-02-20T02:14:59.760Z,0.00
2019-02-20T02:15:59.777Z,0.00
2019-02-20T02:16:59.739Z,0.00
2019-02-20T02:17:59.728Z,0.00
2019-02-20T02:18:59.718Z,0.00
2019-02-20T02:19:59.704Z,0.00
2019-02-20T02:20:59.722Z,0.00
2019-02-20T02:21:59.685Z,0.00
2019-02-20T02:22:59.673Z,0.00
2019-02-20T02:23:59.667Z,0.00
2019-02-20T02:24:59.652Z,0.00
2019-02-20T02:25:59.640Z,0.00
2019-02-20T02:26:59.657Z,0.00
2019-02-20T02:27:59.623Z,0.00
2019-02-20T02:28:59.611Z,0.00
2019-02-20T02:29:59.604Z,0.00
2019-02-20T02:30:59.589Z,0.00
2019-02-20T02:31:59.615Z,0.00
2019-02-20T02:32:59.568Z,0.00
2019-02-20T02:33:59.559Z,0.00
2019-02-20T02:34:59.548Z,0.00
2019-02-20T02:35:59.536Z,0.00
2019-02-20T02:36:59.551Z,0.00
2019-02-20T02:37:59.514Z,0.00
2019-02-20T02:38:59.510Z,0.00
2019-02-20T02:39:59.492Z,0.00
2019-02-20T02:40:59.485Z,0.00
2019-02-20T02:41:59.496Z,0.00
2019-02-20T02:42:59.461Z,0.00
2019-02-20T02:43:59.452Z,0.00
2019-02-20T02:44:59.437Z,0.00
2019-02-20T02:45:59.533Z,0.00
2019-02-20T02:46:59.589Z,0.00
2019-02-20T02:47:59.412Z,0.00
2019-02-20T02:48:59.395Z,0.00
2019-02-20T02:49:59.387Z,0.00
2019-02-20T02:50:59.376Z,0.00
2019-02-20T02:51:59.366Z,0.00
2019-02-20T02:52:59.381Z,0.00
2019-02-20T02:53:59.343Z,0.00
2019-02-20T02:54:59.340Z,0.00
2019-02-20T02:55:59.322Z,0.00
2019-02-20T02:56:59.311Z,0.00
2019-02-20T02:57:59.327Z,0.00
2019-02-20T02:58:59.292Z,0.00
2019-02-20T02:59:59.278Z,0.00
2019-02-20T03:00:59.272Z,0.00
2019-02-20T03:01:59.264Z,0.00
2019-02-20T03:02:59.270Z,0.00
2019-02-20T03:03:59.243Z,0.00
2019-02-20T03:04:59.223Z,0.00
2019-02-20T03:05:59.218Z,0.00
2019-02-20T03:07:10.151Z,0.00
2019-02-20T03:07:59.221Z,0.00
2019-02-20T03:08:59.182Z,0.00
2019-02-20T03:09:59.177Z,0.00
2019-02-20T03:10:59.159Z,0.00
2019-02-20T03:11:59.153Z,0.00
2019-02-20T03:12:59.166Z,0.00
2019-02-20T03:13:59.136Z,0.00
2019-02-20T03:14:59.118Z,0.00
2019-02-20T03:15:59.123Z,0.00
2019-02-20T03:16:59.103Z,0.00
2019-02-20T03:17:59.111Z,0.00
2019-02-20T03:18:59.075Z,0.00
2019-02-20T03:19:59.075Z,0.00
2019-02-20T03:20:59.057Z,0.00
2019-02-20T03:21:59.052Z,0.00
2019-02-20T03:22:59.062Z,0.00
2019-02-20T03:23:59.032Z,0.00
2019-02-20T03:24:59.010Z,0.00
2019-02-20T03:25:59.000Z,0.00
2019-02-20T03:26:58.990Z,0.00
2019-02-20T03:27:59.016Z,0.00
2019-02-20T03:28:58.969Z,0.00
2019-02-20T03:29:58.959Z,0.00
2019-02-20T03:30:58.951Z,0.00
2019-02-20T03:31:58.934Z,0.00
2019-02-20T03:32:58.953Z,0.00
2019-02-20T03:33:58.915Z,0.00
2019-02-20T03:34:58.904Z,0.00
2019-02-20T03:35:58.891Z,0.00
2019-02-20T03:36:58.879Z,0.00
2019-02-20T03:37:58.891Z,0.00
2019-02-20T03:38:58.854Z,0.00
2019-02-20T03:39:58.848Z,0.00
2019-02-20T03:40:58.855Z,0.00
2019-02-20T03:41:58.824Z,0.00
2019-02-20T03:42:58.854Z,0.00
2019-02-20T03:43:58.816Z,0.00
2019-02-20T03:44:58.798Z,0.00
2019-02-20T03:45:58.784Z,0.00
2019-02-20T03:46:58.774Z,0.00
2019-02-20T03:47:58.790Z,0.00
2019-02-20T03:48:58.751Z,0.00
2019-02-20T03:49:58.745Z,0.00
2019-02-20T03:50:58.736Z,0.00
2019-02-20T03:51:58.714Z,0.00
2019-02-20T03:52:58.735Z,0.00
2019-02-20T03:53:58.724Z,0.00
2019-02-20T03:54:58.684Z,0.00
2019-02-20T03:55:58.680Z,0.00
2019-02-20T03:56:58.663Z,0.00
2019-02-20T03:57:58.706Z,0.00
2019-02-20T03:58:58.642Z,0.00
2019-02-20T03:59:58.632Z,0.00
2019-02-20T04:00:58.621Z,0.00
2019-02-20T04:01:58.605Z,0.00
2019-02-20T04:02:58.601Z,0.00
2019-02-20T04:03:58.616Z,0.00
2019-02-20T04:04:58.574Z,0.00
2019-02-20T04:05:58.567Z,0.00
2019-02-20T04:06:58.556Z,0.00
2019-02-20T04:07:58.562Z,0.00
2019-02-20T04:08:58.582Z,0.00
2019-02-20T04:09:58.522Z,0.00
2019-02-20T04:10:58.513Z,0.00
2019-02-20T04:11:58.499Z,0.00
2019-02-20T04:12:58.495Z,0.00
2019-02-20T04:13:58.503Z,0.00
2019-02-20T04:14:58.470Z,0.00
2019-02-20T04:15:58.458Z,0.00
2019-02-20T04:16:58.442Z,0.00
2019-02-20T04:17:58.470Z,0.00
2019-02-20T04:18:58.451Z,0.00
2019-02-20T04:19:58.414Z,0.00
2019-02-20T04:20:58.408Z,0.00
2019-02-20T04:21:58.413Z,0.00
2019-02-20T04:22:58.378Z,0.00
2019-02-20T04:24:02.404Z,0.00
2019-02-20T04:24:58.360Z,0.00
2019-02-20T04:25:58.348Z,0.00
2019-02-20T04:26:59.105Z,0.00
2019-02-20T04:27:58.329Z,0.00
2019-02-20T04:28:58.343Z,0.00
2019-02-20T04:29:58.330Z,0.00
2019-02-20T04:30:58.291Z,0.00
2019-02-20T04:31:58.286Z,0.00
2019-02-20T04:32:58.553Z,0.00
2019-02-20T04:33:58.284Z,0.00
2019-02-20T04:34:58.247Z,0.00
2019-02-20T04:35:58.246Z,0.00
2019-02-20T04:36:58.232Z,0.00
2019-02-20T04:37:58.235Z,0.00
2019-02-20T04:38:58.243Z,0.00
2019-02-20T04:39:58.196Z,0.00
2019-02-20T04:40:58.186Z,0.00
2019-02-20T04:41:58.181Z,0.00
2019-02-20T04:42:58.574Z,0.00
2019-02-20T04:43:58.155Z,0.00
2019-02-20T04:44:58.171Z,0.00
2019-02-20T04:45:58.130Z,0.00
2019-02-20T04:46:58.126Z,0.00
2019-02-20T04:47:58.107Z,0.00
2019-02-20T04:48:58.102Z,0.00
2019-02-20T04:49:58.111Z,0.00
2019-02-20T04:50:58.074Z,0.00
2019-02-20T04:51:58.072Z,0.00
2019-02-20T04:52:58.062Z,0.00
2019-02-20T04:53:58.044Z,0.00
2019-02-20T04:54:58.059Z,0.00
2019-02-20T04:55:58.031Z,0.00
2019-02-20T04:56:58.012Z,0.00
2019-02-20T04:57:58.000Z,0.00
2019-02-20T04:58:58.001Z,0.00
2019-02-20T04:59:58.010Z,0.00
2019-02-20T05:00:57.970Z,0.00
2019-02-20T05:01:57.956Z,0.00
2019-02-20T05:02:57.953Z,0.00
2019-02-20T05:03:57.952Z,0.00
2019-02-20T05:04:57.948Z,0.00
2019-02-20T05:05:57.923Z,0.00
2019-02-20T05:06:57.945Z,0.00
2019-02-20T05:07:57.896Z,0.00
2019-02-20T05:08:57.933Z,0.00
2019-02-20T05:09:57.900Z,0.00
2019-02-20T05:10:57.865Z,0.00
2019-02-20T05:11:57.849Z,0.00
2019-02-20T05:12:57.844Z,0.00
2019-02-20T05:13:57.829Z,0.00
2019-02-20T05:14:57.843Z,0.00
2019-02-20T05:15:57.819Z,0.00
2019-02-20T05:16:57.863Z,0.00
2019-02-20T05:17:57.787Z,0.00
2019-02-20T05:18:57.774Z,0.00
2019-02-20T05:19:57.809Z,0.00
2019-02-20T05:20:57.756Z,0.00
2019-02-20T05:21:57.748Z,0.00
2019-02-20T05:22:57.735Z,0.00
2019-02-20T05:23:57.728Z,0.00
2019-02-20T05:24:57.713Z,0.00
2019-02-20T05:25:57.733Z,0.00
2019-02-20T05:26:57.719Z,0.00
2019-02-20T05:27:57.676Z,0.00
2019-02-20T05:28:57.673Z,0.00
2019-02-20T05:29:57.657Z,0.00
2019-02-20T05:30:57.676Z,0.00
2019-02-20T05:31:57.638Z,0.00
2019-02-20T05:32:57.630Z,0.00
2019-02-20T05:33:57.611Z,0.00
2019-02-20T05:34:57.614Z,0.00
2019-02-20T05:35:57.615Z,0.00
2019-02-20T05:36:57.578Z,0.00
2019-02-20T05:37:57.588Z,0.00
2019-02-20T05:38:57.564Z,0.00
2019-02-20T05:39:57.578Z,0.00
2019-02-20T05:40:57.578Z,0.00
2019-02-20T05:41:57.535Z,0.00
2019-02-20T05:42:57.530Z,0.00
2019-02-20T05:43:57.533Z,0.00
2019-02-20T05:44:57.511Z,0.00
2019-02-20T05:45:57.530Z,0.00
2019-02-20T05:46:57.483Z,0.00
2019-02-20T05:47:57.482Z,0.00
2019-02-20T05:48:57.450Z,0.00
2019-02-20T05:49:57.448Z,0.00
2019-02-20T05:50:57.487Z,0.00
2019-02-20T05:51:57.419Z,0.00
2019-02-20T05:52:57.409Z,0.00
2019-02-20T05:53:57.398Z,0.00
2019-02-20T05:54:57.498Z,0.00
2019-02-20T05:55:57.419Z,0.00
2019-02-20T05:56:57.399Z,0.00
2019-02-20T05:57:57.357Z,0.00
2019-02-20T05:58:57.358Z,4.00
2019-02-20T05:59:57.331Z,4.00
2019-02-20T06:00:57.325Z,4.00
2019-02-20T06:01:57.347Z,0.00
2019-02-20T06:02:57.300Z,4.00
2019-02-20T06:03:57.302Z,4.00
2019-02-20T06:04:57.306Z,8.00
2019-02-20T06:05:57.290Z,4.00
2019-02-20T06:06:57.289Z,8.00
2019-02-20T06:07:57.292Z,8.00
2019-02-20T06:08:57.243Z,12.00
2019-02-20T06:09:57.238Z,16.00
2019-02-20T06:10:57.215Z,16.00
2019-02-20T06:11:57.246Z,16.00
2019-02-20T06:12:57.209Z,24.00
2019-02-20T06:13:57.182Z,24.00
2019-02-20T06:14:57.176Z,32.00
2019-02-20T06:15:57.168Z,36.00
2019-02-20T06:16:57.180Z,40.00
2019-02-20T06:17:57.143Z,52.00
2019-02-20T06:18:57.136Z,60.00
2019-02-20T06:19:57.125Z,72.00
2019-02-20T06:20:57.106Z,80.00
2019-02-20T06:21:57.123Z,92.00
2019-02-20T06:22:57.091Z,108.00
2019-02-20T06:23:57.083Z,124.00
2019-02-20T06:24:57.090Z,140.00
2019-02-20T06:25:57.059Z,156.00
2019-02-20T06:26:57.071Z,176.00
2019-02-20T06:27:57.038Z,192.00
2019-02-20T06:28:57.026Z,212.00
2019-02-20T06:29:57.019Z,236.00
2019-02-20T06:30:57.022Z,256.00
2019-02-20T06:31:57.026Z,284.00
2019-02-20T06:32:56.981Z,312.00
2019-02-20T06:33:56.970Z,336.00
2019-02-20T06:34:56.972Z,368.00
2019-02-20T06:35:56.949Z,400.00
2019-02-20T06:36:56.964Z,436.00
2019-02-20T06:37:56.934Z,472.00
2019-02-20T06:38:56.918Z,512.00
2019-02-20T06:39:56.906Z,548.00
2019-02-20T06:40:56.894Z,592.00
2019-02-20T06:41:56.921Z,636.00
2019-02-20T06:42:56.880Z,688.00
2019-02-20T06:43:56.872Z,736.00
2019-02-20T06:44:56.854Z,792.00
2019-02-20T06:45:56.843Z,848.00
2019-02-20T06:46:56.874Z,900.00
2019-02-20T06:47:56.824Z,960.00
2019-02-20T06:48:56.812Z,1020.00
2019-02-20T06:49:56.801Z,1084.00
2019-02-20T06:50:56.791Z,1140.00
2019-02-20T06:51:56.805Z,1196.00
2019-02-20T06:52:56.789Z,1252.00
2019-02-20T06:53:56.762Z,1304.00
2019-02-20T06:54:56.748Z,1364.00
2019-02-20T06:55:56.737Z,1420.00
2019-02-20T06:56:56.755Z,1484.00
2019-02-20T06:57:56.715Z,1560.00
2019-02-20T06:58:56.710Z,1640.00
2019-02-20T06:59:56.692Z,1732.00
2019-02-20T07:00:56.686Z,1832.00
2019-02-20T07:01:56.700Z,1952.00
2019-02-20T07:02:56.660Z,2076.00
2019-02-20T07:03:56.663Z,2212.00
2019-02-20T07:04:56.650Z,2348.00
2019-02-20T07:05:56.626Z,2480.00
2019-02-20T07:06:56.651Z,2596.00
2019-02-20T07:07:56.606Z,2700.00
2019-02-20T07:08:56.600Z,2780.00
2019-02-20T07:09:56.586Z,2856.00
2019-02-20T07:10:56.578Z,2924.00
2019-02-20T07:11:56.586Z,2984.00
2019-02-20T07:12:56.562Z,3048.00
2019-02-20T07:13:56.555Z,3128.00
2019-02-20T07:14:56.553Z,3216.00
2019-02-20T07:15:56.522Z,3320.00
2019-02-20T07:16:56.537Z,3460.00
2019-02-20T07:17:56.486Z,3596.00
2019-02-20T07:18:56.493Z,3740.00
2019-02-20T07:19:56.480Z,3860.00
2019-02-20T07:20:56.456Z,3956.00
2019-02-20T07:21:56.498Z,4036.00
2019-02-20T07:22:56.459Z,4096.00
2019-02-20T07:23:56.435Z,4140.00
2019-02-20T07:25:02.882Z,4172.00
2019-02-20T07:25:57.415Z,4196.00
2019-02-20T07:26:56.409Z,4232.00
2019-02-20T07:27:56.424Z,4292.00
2019-02-20T07:28:56.413Z,4384.00
2019-02-20T07:29:56.370Z,4484.00
2019-02-20T07:30:56.364Z,4608.00
2019-02-20T07:31:56.352Z,4780.00
2019-02-20T07:32:56.362Z,4992.00
2019-02-20T07:33:56.340Z,5244.00
2019-02-20T07:34:56.314Z,5512.00
2019-02-20T07:35:56.319Z,5792.00
2019-02-20T07:36:56.304Z,6076.00
2019-02-20T07:37:56.314Z,6364.00
2019-02-20T07:38:56.276Z,6608.00
2019-02-20T07:39:57.357Z,6800.00
2019-02-20T07:40:56.261Z,6980.00
2019-02-20T07:41:56.242Z,7120.00
2019-02-20T07:42:56.258Z,7180.00
2019-02-20T07:43:56.223Z,7180.00
2019-02-20T07:44:56.212Z,7128.00
2019-02-20T07:45:56.203Z,7076.00
2019-02-20T07:46:56.195Z,7032.00
2019-02-20T07:47:56.203Z,7020.00
2019-02-20T07:48:56.187Z,7068.00
2019-02-20T07:49:56.163Z,7172.00
2019-02-20T07:50:56.149Z,7340.00
2019-02-20T07:51:56.145Z,7560.00
2019-02-20T07:52:56.158Z,7780.00
2019-02-20T07:53:56.120Z,7908.00
2019-02-20T07:54:56.108Z,7908.00
2019-02-20T07:55:56.091Z,7792.00
2019-02-20T07:56:56.086Z,7664.00
2019-02-20T07:57:56.102Z,7648.00
2019-02-20T07:58:56.061Z,7728.00
2019-02-20T07:59:56.057Z,7884.00
2019-02-20T08:00:56.039Z,8072.00
2019-02-20T08:01:56.027Z,8280.00
2019-02-20T08:02:56.043Z,8484.00
2019-02-20T08:03:56.004Z,8680.00
2019-02-20T08:04:55.994Z,8916.00
2019-02-20T08:05:55.985Z,9204.00
2019-02-20T08:06:55.972Z,9488.00
2019-02-20T08:07:55.990Z,9756.00
2019-02-20T08:08:55.953Z,10032.00
2019-02-20T08:09:55.943Z,10380.00
2019-02-20T08:10:55.941Z,10804.00
2019-02-20T08:11:55.920Z,11260.00
2019-02-20T08:12:55.941Z,11664.00
2019-02-20T08:13:55.904Z,11988.00
2019-02-20T08:14:55.888Z,12220.00
2019-02-20T08:15:55.878Z,12276.00
2019-02-20T08:16:55.868Z,12316.00
2019-02-20T08:17:55.887Z,12452.00
2019-02-20T08:18:55.847Z,12644.00
2019-02-20T08:19:55.837Z,12876.00
2019-02-20T08:20:55.823Z,13104.00
2019-02-20T08:21:55.817Z,13300.00
2019-02-20T08:22:55.832Z,13260.00
2019-02-20T08:23:55.788Z,12996.00
2019-02-20T08:24:55.780Z,12684.00
2019-02-20T08:25:55.776Z,12304.00
2019-02-20T08:26:55.761Z,11896.00
2019-02-20T08:27:55.775Z,11612.00
2019-02-20T08:28:55.739Z,11568.00
2019-02-20T08:29:55.723Z,11816.00
2019-02-20T08:30:55.715Z,12284.00
2019-02-20T08:31:55.709Z,12956.00
2019-02-20T08:32:55.720Z,13676.00
2019-02-20T08:33:55.684Z,14296.00
2019-02-20T08:34:55.671Z,14700.00
2019-02-20T08:35:55.660Z,14808.00
2019-02-20T08:36:55.656Z,14604.00
2019-02-20T08:37:55.858Z,14280.00
2019-02-20T08:38:55.629Z,14052.00
2019-02-20T08:39:55.617Z,14016.00
2019-02-20T08:40:55.608Z,14212.00
2019-02-20T08:41:55.590Z,14600.00
2019-02-20T08:42:55.619Z,15120.00
2019-02-20T08:43:55.571Z,15668.00
2019-02-20T08:44:55.561Z,16128.00
2019-02-20T08:45:55.551Z,16384.00
2019-02-20T08:46:55.554Z,16368.00
2019-02-20T08:47:55.575Z,16164.00
2019-02-20T08:48:55.523Z,15888.00
2019-02-20T08:49:55.508Z,15492.00
2019-02-20T08:50:55.505Z,15036.00
2019-02-20T08:51:55.486Z,14656.00
2019-02-20T08:52:55.510Z,14492.00
2019-02-20T08:53:55.462Z,14596.00
2019-02-20T08:54:55.451Z,14876.00
2019-02-20T08:55:55.447Z,15344.00
2019-02-20T08:56:55.435Z,15804.00
2019-02-20T08:57:55.453Z,16152.00
2019-02-20T08:58:55.415Z,16240.00
2019-02-20T08:59:55.405Z,16024.00
2019-02-20T09:00:55.399Z,15576.00
2019-02-20T09:01:55.380Z,15096.00
2019-02-20T09:02:55.371Z,14740.00
2019-02-20T09:03:55.390Z,14608.00
2019-02-20T09:04:55.351Z,14812.00
2019-02-20T09:05:55.346Z,15404.00
2019-02-20T09:07:53.390Z,17536.00
2019-02-20T09:08:53.400Z,18752.00
2019-02-20T09:09:53.368Z,19872.00
2019-02-20T09:10:53.360Z,20736.00
2019-02-20T09:11:53.347Z,21056.00
2019-02-20T09:12:53.334Z,20864.00
2019-02-20T09:13:53.361Z,20480.00
2019-02-20T09:14:53.320Z,20160.00
2019-02-20T09:15:53.309Z,19936.00
2019-02-20T09:16:53.293Z,19840.00
2019-02-20T09:17:53.285Z,19872.00
2019-02-20T09:18:53.300Z,19936.00
2019-02-20T09:19:53.260Z,19872.00
2019-02-20T09:20:53.256Z,19744.00
2019-02-20T09:21:53.242Z,19552.00
2019-02-20T09:22:53.238Z,19264.00
2019-02-20T09:23:53.247Z,19296.00
2019-02-20T09:24:53.216Z,19424.00
2019-02-20T09:25:53.197Z,19456.00
2019-02-20T09:26:53.184Z,19328.00
2019-02-20T09:27:53.182Z,19168.00
2019-02-20T09:28:53.195Z,18976.00
2019-02-20T09:29:53.154Z,18656.00
2019-02-20T09:30:53.147Z,18304.00
2019-02-20T09:31:53.134Z,17920.00
2019-02-20T09:32:53.122Z,17632.00
2019-02-20T09:33:53.143Z,17408.00
2019-02-20T09:34:53.153Z,17068.00
2019-02-20T09:35:53.088Z,16936.00
2019-02-20T09:36:53.075Z,16848.00
2019-02-20T09:37:53.067Z,16808.00
2019-02-20T09:38:53.079Z,16824.00
2019-02-20T09:39:53.047Z,17052.00
2019-02-20T09:40:53.037Z,17536.00
2019-02-20T09:41:53.029Z,17856.00
2019-02-20T09:42:53.000Z,18176.00
2019-02-20T09:43:53.027Z,18400.00
2019-02-20T09:44:52.995Z,18624.00
2019-02-20T09:45:52.992Z,19008.00
2019-02-20T09:46:52.979Z,19456.00
2019-02-20T09:47:52.969Z,19808.00
2019-02-20T09:48:52.974Z,19648.00
2019-02-20T09:49:52.941Z,18752.00
2019-02-20T09:50:52.931Z,18592.00
2019-02-20T09:51:52.917Z,19104.00
2019-02-20T09:52:53.052Z,19136.00
2019-02-20T09:53:52.924Z,18880.00
2019-02-20T09:54:52.884Z,18720.00
2019-02-20T09:55:52.876Z,18720.00
2019-02-20T09:56:52.870Z,18880.00
2019-02-20T09:57:52.858Z,19040.00
2019-02-20T09:58:52.868Z,19136.00
2019-02-20T09:59:52.819Z,19136.00
2019-02-20T10:00:52.830Z,18976.00
2019-02-20T10:01:52.817Z,18880.00
2019-02-20T10:02:52.800Z,18784.00
2019-02-20T10:03:52.827Z,18848.00
2019-02-20T10:04:52.800Z,19072.00
2019-02-20T10:05:52.770Z,19360.00
2019-02-20T10:06:52.763Z,19648.00
2019-02-20T10:07:52.752Z,19904.00
2019-02-20T10:08:52.768Z,20032.00
2019-02-20T10:09:52.730Z,20032.00
2019-02-20T10:10:52.719Z,20000.00
2019-02-20T10:11:52.708Z,19936.00
2019-02-20T10:12:52.697Z,19872.00
2019-02-20T10:13:52.717Z,19808.00
2019-02-20T10:14:52.677Z,19840.00
2019-02-20T10:15:52.678Z,19936.00
2019-02-20T10:16:53.982Z,20000.00
2019-02-20T10:17:52.645Z,20064.00
2019-02-20T10:18:52.656Z,20160.00
2019-02-20T10:19:52.625Z,20320.00
2019-02-20T10:20:52.612Z,20448.00
2019-02-20T10:21:52.600Z,20640.00
2019-02-20T10:22:52.593Z,20864.00
2019-02-20T10:23:52.607Z,21280.00
2019-02-20T10:24:52.570Z,21728.00
2019-02-20T10:26:00.502Z,22176.00
2019-02-20T10:27:00.467Z,22496.00
2019-02-20T10:27:53.538Z,22592.00
2019-02-20T10:28:54.088Z,22400.00
2019-02-20T10:29:52.519Z,21920.00
2019-02-20T10:30:52.503Z,21408.00
2019-02-20T10:31:52.496Z,20992.00
2019-02-20T10:32:52.493Z,21184.00
2019-02-20T10:33:52.525Z,21600.00
2019-02-20T10:34:52.475Z,21664.00
2019-02-20T10:35:52.457Z,21504.00
2019-02-20T10:36:52.444Z,21472.00
2019-02-20T10:37:52.989Z,21760.00
2019-02-20T10:38:52.456Z,21920.00
2019-02-20T10:39:52.408Z,21888.00
2019-02-20T10:40:52.421Z,22016.00
2019-02-20T10:41:52.387Z,22688.00
2019-02-20T10:42:52.377Z,23200.00
2019-02-20T10:43:52.373Z,23200.00
2019-02-20T10:44:52.401Z,23008.00
2019-02-20T10:45:52.349Z,22880.00
2019-02-20T10:46:52.337Z,22816.00
2019-02-20T10:47:52.332Z,22560.00
2019-02-20T10:48:52.316Z,22240.00
2019-02-20T10:49:52.336Z,21952.00
2019-02-20T10:50:52.297Z,21888.00
2019-02-20T10:51:52.279Z,21920.00
2019-02-20T10:52:52.320Z,22144.00
2019-02-20T10:53:52.260Z,22432.00
2019-02-20T10:54:57.825Z,22688.00
2019-02-20T10:55:53.245Z,22912.00
2019-02-20T10:56:52.231Z,23072.00
2019-02-20T10:57:52.216Z,23136.00
2019-02-20T10:58:52.208Z,23072.00
2019-02-20T10:59:52.225Z,22976.00
2019-02-20T11:00:52.183Z,22848.00
2019-02-20T11:01:52.180Z,22720.00
2019-02-20T11:02:52.210Z,22976.00
2019-02-20T11:03:52.177Z,23392.00
2019-02-20T11:04:52.168Z,23776.00
2019-02-20T11:05:52.137Z,23936.00
2019-02-20T11:06:52.121Z,24032.00
2019-02-20T11:07:52.116Z,24032.00
2019-02-20T11:08:52.100Z,23904.00
2019-02-20T11:09:52.116Z,23648.00
2019-02-20T11:10:52.082Z,23360.00
2019-02-20T11:11:52.073Z,23392.00
2019-02-20T11:12:52.059Z,24192.00
2019-02-20T11:13:52.058Z,25600.00
2019-02-20T11:14:52.079Z,26752.00
2019-02-20T11:15:52.027Z,27392.00
2019-02-20T11:16:52.018Z,27904.00
2019-02-20T11:17:52.003Z,28576.00
2019-02-20T11:18:51.999Z,29280.00
2019-02-20T11:19:52.011Z,30016.00
2019-02-20T11:20:51.971Z,30880.00
2019-02-20T11:21:51.966Z,31552.00
2019-02-20T11:22:51.949Z,32384.00
2019-02-20T11:23:51.940Z,33216.00
2019-02-20T11:24:53.807Z,33920.00
2019-02-20T11:25:51.923Z,34592.00
2019-02-20T11:26:55.021Z,34976.00
2019-02-20T11:27:51.900Z,34944.00
2019-02-20T11:28:51.888Z,34848.00
2019-02-20T11:29:51.907Z,34656.00
2019-02-20T11:30:51.878Z,34464.00
2019-02-20T11:31:51.864Z,34496.00
2019-02-20T11:32:51.845Z,34752.00
2019-02-20T11:33:51.837Z,34784.00
2019-02-20T11:34:51.847Z,34528.00
2019-02-20T11:35:51.820Z,33920.00
2019-02-20T11:36:51.802Z,33088.00
2019-02-20T11:37:51.794Z,32160.00
2019-02-20T11:38:51.780Z,31360.00
2019-02-20T11:39:51.802Z,30880.00
2019-02-20T11:40:51.760Z,30592.00
2019-02-20T11:41:51.749Z,30272.00
2019-02-20T11:42:51.739Z,29792.00
2019-02-20T11:43:51.728Z,29376.00
2019-02-20T11:44:51.740Z,29152.00
2019-02-20T11:45:51.705Z,28896.00
2019-02-20T11:46:51.718Z,28768.00
2019-02-20T11:47:51.686Z,29056.00
2019-02-20T11:48:51.676Z,29728.00
2019-02-20T11:49:51.693Z,30240.00
2019-02-20T11:50:51.652Z,30464.00
2019-02-20T11:51:51.641Z,30432.00
2019-02-20T11:52:51.634Z,30304.00
2019-02-20T11:53:51.623Z,29888.00
2019-02-20T11:54:51.641Z,29120.00
2019-02-20T11:55:51.601Z,28576.00
2019-02-20T11:56:51.588Z,28256.00
2019-02-20T11:58:00.315Z,28160.00
2019-02-20T11:58:52.572Z,28352.00
2019-02-20T11:59:51.588Z,28544.00
2019-02-20T12:00:51.550Z,28640.00
2019-02-20T12:01:51.540Z,28704.00
2019-02-20T12:02:51.584Z,28832.00
2019-02-20T12:03:51.518Z,28704.00
2019-02-20T12:04:51.533Z,28384.00
2019-02-20T12:05:51.495Z,28064.00
2019-02-20T12:06:51.484Z,27968.00
2019-02-20T12:07:51.485Z,28032.00
2019-02-20T12:08:51.461Z,28096.00
2019-02-20T12:09:51.479Z,28160.00
2019-02-20T12:10:51.445Z,28032.00
2019-02-20T12:11:51.434Z,27840.00
2019-02-20T12:12:51.418Z,27712.00
2019-02-20T12:13:51.404Z,27520.00
2019-02-20T12:14:51.422Z,27424.00
2019-02-20T12:15:51.385Z,27808.00
2019-02-20T12:16:51.376Z,28480.00
2019-02-20T12:17:51.363Z,29216.00
2019-02-20T12:18:51.357Z,29632.00
2019-02-20T12:19:51.343Z,29760.00
2019-02-20T12:20:51.360Z,29760.00
2019-02-20T12:21:51.327Z,29664.00
2019-02-20T12:22:51.311Z,29600.00
2019-02-20T12:23:51.323Z,29568.00
2019-02-20T12:24:51.292Z,29824.00
2019-02-20T12:25:51.304Z,30240.00
2019-02-20T12:26:51.281Z,30720.00
2019-02-20T12:27:51.259Z,31104.00
2019-02-20T12:28:51.252Z,31488.00
2019-02-20T12:29:51.241Z,32064.00
2019-02-20T12:30:51.262Z,32640.00
2019-02-20T12:31:52.724Z,33248.00
2019-02-20T12:32:51.219Z,33952.00